createdAt,value
2023-04-17T13:32:51.165Z,52.00
2023-04-17T13:42:53.174Z,52.82
2023-04-17T13:52:54.760Z,57.48
2023-04-17T14:02:56.482Z,59.48
2023-04-17T14:13:09.123Z,60.94
2023-04-17T14:23:10.752Z,50.96
2023-04-17T14:33:12.261Z,32.57
2023-04-17T14:53:24.280Z,32.15
2023-04-17T15:03:27.456Z,37.01
2023-04-17T15:13:29.289Z,39.58
2023-04-17T15:23:31.821Z,45.41
2023-04-17T15:33:49.661Z,50.40
2023-04-17T15:43:51.581Z,54.37
2023-04-17T15:53:53.236Z,57.06
2023-04-17T16:03:56.104Z,59.06
2023-04-17T16:13:57.948Z,60.37
2023-04-17T16:23:59.652Z,61.46
2023-04-17T16:34:03.113Z,62.48
2023-04-17T16:44:05.594Z,62.88
2023-04-17T16:54:08.452Z,65.25
2023-04-17T17:04:10.376Z,66.10
2023-04-17T17:14:17.394Z,69.77
2023-04-17T17:24:20.256Z,75.41
2023-04-17T17:34:26.977Z,80.22
2023-04-17T17:44:32.382Z,85.77
2023-04-17T17:54:38.764Z,87.39
2023-04-17T18:04:41.743Z,89.16
2023-04-17T18:14:44.259Z,88.07
2023-04-17T18:24:46.596Z,88.41
2023-04-17T18:34:52.609Z,91.65
2023-04-17T18:44:55.127Z,90.78
2023-04-17T18:54:58.404Z,91.80
2023-04-17T19:05:11.290Z,95.87
2023-04-17T19:15:13.418Z,97.18
2023-04-17T19:25:20.776Z,97.48
2023-04-17T19:35:24.164Z,100.00
2023-04-17T19:45:27.240Z,100.00
2023-04-17T19:55:29.682Z,100.00
2023-04-17T20:05:36.952Z,100.00
2023-04-17T20:15:41.250Z,100.00
2023-04-17T20:25:43.108Z,100.00
2023-04-17T20:35:46.856Z,100.00
2023-04-17T20:45:50.414Z,100.00
2023-04-17T20:55:52.139Z,100.00
2023-04-17T21:05:53.829Z,100.00
2023-04-17T21:15:55.607Z,100.00
2023-04-17T21:25:57.580Z,100.00
2023-04-17T21:36:01.345Z,100.00
2023-04-17T21:46:10.242Z,100.00
2023-04-17T21:56:13.032Z,100.00
2023-04-17T22:06:14.619Z,100.00
2023-04-17T22:16:16.788Z,100.00
2023-04-17T22:26:18.438Z,100.00
2023-04-17T22:36:22.516Z,100.00
2023-04-17T22:46:25.476Z,100.00
2023-04-17T22:56:28.246Z,100.00
2023-04-17T23:06:29.857Z,100.00
2023-04-17T23:16:31.664Z,100.00
2023-04-17T23:26:40.462Z,100.00
2023-04-17T23:36:44.611Z,100.00
2023-04-17T23:46:48.356Z,100.00
2023-04-17T23:56:54.945Z,100.00
